Dyer, Nevada
Current Conditions -  °F | °C
As of 1:56 PM on Thursday 18 Dec 2014 (Local Time) from KBIH Reporting Station
Clear Clear  
Wind Chill: 50°   Ceiling: Unl
Heat Index: 50°   Visibility: 10mi
Dew Point: 29°   Wind: 0mph
Humidity: 44%   Direction: NA
Pressure: 30.13"   Gusts: NA
Location:  37.68°N, 118.08°W
Report Text: KBIH 182156Z AUTO 00000KT 10SM CLR 10/M02 A3013 RMK AO2 SLP196 T01001017
Loading
Personal Weather Stations






























Interactive Weather Map New forecast layout! Learn more

10-Day Weather Forecast

Advertisements
Track Severe Weather on mobile